Time;durP1;ratioP1;P1;durP2;ratioP2;P2;SDS_P1;SDS_P2;PMS_P1;PMS_P2;Temp;Humidity;BMP_temperature;BMP_pressure;BME280_temperature;BME280_humidity;BME280_pressure;Samples;Min_cycle;Max_cycle;Signal;HPM_P1;HPM_P2
2022/01/11 00:00:35;;;;;;;29.70;12.40;;;;;;;-1.28;67.90;100085.88;106077;1272;97894;-74
2022/01/11 00:03:13;;;;;;;28.60;11.60;;;;;;;-1.26;67.66;100085.86;106112;1274;97924;-74
2022/01/11 00:05:51;;;;;;;26.50;10.80;;;;;;;-1.27;67.65;100088.47;106085;1274;109965;-74
2022/01/11 00:08:29;;;;;;;26.20;10.90;;;;;;;-1.28;67.55;100088.65;106074;1274;97975;-74
2022/01/11 00:11:04;;;;;;;27.20;11.80;;;;;;;-1.29;67.67;100090.92;106213;1274;107914;-74
2022/01/11 00:13:36;;;;;;;29.40;11.80;;;;;;;-1.29;67.42;100094.23;106163;1274;97984;-74
2022/01/11 00:16:07;;;;;;;26.40;11.00;;;;;;;-1.29;67.73;100091.80;106199;1274;97855;-76
2022/01/11 00:18:38;;;;;;;31.60;11.80;;;;;;;-1.28;67.27;100092.14;106258;1272;111113;-76
2022/01/11 00:21:06;;;;;;;30.00;11.30;;;;;;;-1.29;67.55;100092.33;106080;1274;96412;-74
2022/01/11 00:26:04;;;;;;;26.30;11.50;;;;;;;-1.29;67.64;100102.41;106052;1274;97969;-74
2022/01/11 00:28:32;;;;;;;26.40;10.50;;;;;;;-1.30;67.44;100101.55;106032;1274;98569;-74
2022/01/11 00:31:02;;;;;;;28.20;11.30;;;;;;;-1.31;67.60;100102.60;106163;1274;111305;-73
2022/01/11 00:33:37;;;;;;;27.90;11.40;;;;;;;-1.30;67.54;100101.55;106190;1274;98552;-73
2022/01/11 00:36:08;;;;;;;31.10;12.30;;;;;;;-1.27;67.96;100101.36;106100;1273;107563;-73
2022/01/11 00:38:40;;;;;;;27.40;11.20;;;;;;;-1.24;67.78;100102.38;106205;1274;97943;-71
2022/01/11 00:41:15;;;;;;;26.40;11.20;;;;;;;-1.23;67.75;100099.75;106174;1274;97852;-69
2022/01/11 00:43:43;;;;;;;28.50;11.60;;;;;;;-1.21;67.83;100101.99;106215;1274;111365;-73
2022/01/11 00:46:14;;;;;;;26.20;10.60;;;;;;;-1.21;67.83;100104.79;106174;1274;97982;-73
2022/01/11 00:48:42;;;;;;;27.70;11.60;;;;;;;-1.22;67.67;100103.39;106216;1273;107668;-72
2022/01/11 00:51:10;;;;;;;26.30;11.20;;;;;;;-1.21;67.61;100109.13;106121;1273;97846;-73
2022/01/11 00:53:42;;;;;;;24.10;10.50;;;;;;;-1.21;67.62;100109.13;106133;1274;96051;-73
2022/01/11 00:56:09;;;;;;;27.30;11.00;;;;;;;-1.22;67.69;100112.79;106088;1274;111337;-72
2022/01/11 00:58:37;;;;;;;28.70;11.90;;;;;;;-1.21;67.47;100113.31;106164;1274;96224;-74
2022/01/11 01:01:05;;;;;;;29.70;13.50;;;;;;;-1.19;67.75;100113.98;106152;1274;107684;-72
2022/01/11 01:03:37;;;;;;;34.00;12.30;;;;;;;-1.17;67.50;100116.77;106254;1274;97891;-72
2022/01/11 01:06:07;;;;;;;29.70;13.00;;;;;;;-1.15;67.45;100116.40;106221;1273;97929;-73
2022/01/11 01:08:35;;;;;;;29.90;12.50;;;;;;;-1.15;67.52;100116.75;106063;1274;111079;-74
2022/01/11 01:11:06;;;;;;;29.70;13.00;;;;;;;-1.15;67.47;100113.96;106154;1274;95302;-73
2022/01/11 01:13:33;;;;;;;28.00;12.10;;;;;;;-1.14;67.59;100116.58;106125;1272;107660;-73
2022/01/11 01:16:01;;;;;;;27.60;11.60;;;;;;;-1.15;67.63;100121.98;106111;1274;95258;-72
2022/01/11 01:18:33;;;;;;;28.00;11.80;;;;;;;-1.15;67.91;100123.20;106132;1274;95257;-74
2022/01/11 01:21:05;;;;;;;;;;;;;;;-1.15;67.69;100124.92;106174;1274;111398;-75
2022/01/11 01:23:35;;;;;;;26.70;10.90;;;;;;;-1.16;67.48;100130.16;106106;1274;97889;-74
2022/01/11 01:26:04;;;;;;;27.00;11.20;;;;;;;-1.15;67.73;100131.37;106010;1274;108877;-73
2022/01/11 01:28:33;;;;;;;24.30;10.50;;;;;;;-1.14;67.71;100129.61;106097;1274;97988;-75
2022/01/11 01:31:02;;;;;;;24.70;10.60;;;;;;;-1.14;67.50;100131.70;106119;1274;97874;-73
2022/01/11 01:33:33;;;;;;;24.60;10.30;;;;;;;-1.14;67.57;100137.63;106121;1274;110995;-74
2022/01/11 01:36:11;;;;;;;23.40;9.60;;;;;;;-1.14;67.78;100136.75;106132;1274;97874;-75
2022/01/11 01:38:40;;;;;;;27.00;11.30;;;;;;;-1.14;67.67;100138.85;106110;1274;107786;-73
2022/01/11 01:41:14;;;;;;;24.80;10.80;;;;;;;-1.15;67.53;100143.20;106081;1274;98030;-74
2022/01/11 01:43:47;;;;;;;24.70;9.60;;;;;;;-1.14;67.78;100141.81;106112;1274;95359;-75
2022/01/11 01:46:17;;;;;;;22.80;9.60;;;;;;;-1.13;67.73;100146.68;106123;1274;110401;-73
2022/01/11 01:48:48;;;;;;;24.30;9.70;;;;;;;-1.15;67.60;100147.91;106109;1274;97857;-75
2022/01/11 01:51:18;;;;;;;26.00;11.20;;;;;;;-1.15;67.56;100152.95;106148;1274;106911;-73
2022/01/11 01:53:50;;;;;;;26.90;11.10;;;;;;;-1.14;67.40;100153.30;106154;1274;96241;-73
2022/01/11 01:56:22;;;;;;;22.50;9.60;;;;;;;-1.14;67.62;100151.73;106160;1274;97944;-75
2022/01/11 01:58:53;;;;;;;25.30;10.20;;;;;;;-1.15;67.69;100151.91;106049;1277;111389;-73
2022/01/11 02:01:21;;;;;;;22.00;8.80;;;;;;;-1.16;67.55;100159.75;106086;1274;95299;-76
2022/01/11 02:03:51;;;;;;;20.40;8.20;;;;;;;-1.18;67.56;100153.67;106143;1274;107724;-78
2022/01/11 02:06:20;;;;;;;22.40;9.00;;;;;;;-1.21;67.26;100157.34;106129;1274;97978;-76
2022/01/11 02:08:51;;;;;;;21.50;8.40;;;;;;;-1.21;67.44;100160.83;106194;1274;97972;-77
2022/01/11 02:11:24;;;;;;;23.90;9.90;;;;;;;-1.24;67.56;100163.29;106179;1274;111461;-75
2022/01/11 02:13:54;;;;;;;17.70;7.00;;;;;;;-1.25;67.37;100161.20;106184;1274;95816;-74
2022/01/11 02:16:24;;;;;;;21.60;8.50;;;;;;;-1.27;67.68;100162.96;106167;1274;107276;-74
2022/01/11 02:18:54;;;;;;;21.60;8.50;;;;;;;-1.31;67.59;100166.98;106119;1273;97981;-74
2022/01/11 02:21:24;;;;;;;22.90;8.60;;;;;;;-1.36;67.51;100171.88;106218;1274;95210;-70
2022/01/11 02:23:55;;;;;;;22.40;8.60;;;;;;;-1.37;67.51;100169.80;106143;1274;111006;-73
2022/01/11 02:26:25;;;;;;;21.40;8.60;;;;;;;-1.38;67.37;100167.20;106151;1274;95306;-77
2022/01/11 02:28:54;;;;;;;22.40;8.20;;;;;;;-1.40;67.45;100169.48;106192;1274;107790;-73
2022/01/11 02:31:22;;;;;;;20.30;8.30;;;;;;;-1.44;67.44;100165.68;106164;1274;97856;-76
2022/01/11 02:33:57;;;;;;;21.30;8.80;;;;;;;-1.50;67.37;100170.05;106215;1274;97842;-74
2022/01/11 02:36:31;;;;;;;24.10;9.90;;;;;;;-1.51;67.30;100172.33;106122;1274;111380;-76
2022/01/11 02:39:01;;;;;;;21.20;9.00;;;;;;;-1.53;67.29;100168.16;106132;1274;96446;-72
2022/01/11 02:41:32;;;;;;;20.60;8.90;;;;;;;-1.53;67.03;100172.85;106048;1274;107575;-75
2022/01/11 02:44:02;;;;;;;20.90;8.60;;;;;;;-1.56;67.11;100172.00;106106;1273;95848;-74
2022/01/11 02:46:32;;;;;;;22.40;9.20;;;;;;;-1.58;67.31;100172.70;106087;1274;96454;-75
2022/01/11 02:49:00;;;;;;;20.60;8.40;;;;;;;-1.62;66.96;100177.44;106143;1274;111381;-74
2022/01/11 02:51:28;;;;;;;21.50;8.50;;;;;;;-1.68;66.81;100175.37;106127;1274;97879;-75
2022/01/11 02:53:59;;;;;;;21.50;9.30;;;;;;;-1.75;67.10;100176.78;106165;1274;107552;-75
2022/01/11 02:56:28;;;;;;;23.30;9.90;;;;;;;-1.79;66.90;100179.58;106094;1274;97762;-75
2022/01/11 02:58:59;;;;;;;22.40;9.20;;;;;;;-1.82;66.83;100179.60;106199;1274;97936;-74
2022/01/11 03:01:26;;;;;;;22.90;9.80;;;;;;;-1.82;67.07;100185.86;106112;1274;112814;-74
2022/01/11 03:03:58;;;;;;;24.20;9.60;;;;;;;-1.81;67.16;100188.11;106091;1274;98019;-74
2022/01/11 03:06:26;;;;;;;24.50;9.40;;;;;;;-1.83;67.13;100190.56;106123;1274;108447;-75
2022/01/11 03:08:54;;;;;;;27.30;10.70;;;;;;;-1.87;66.99;100189.71;106147;1274;97934;-73
2022/01/11 03:11:25;;;;;;;23.40;9.30;;;;;;;-1.88;66.97;100188.68;106198;1274;97975;-74
2022/01/11 03:13:53;;;;;;;23.20;10.30;;;;;;;-1.89;67.05;100192.50;106177;1274;111413;-74
2022/01/11 03:16:20;;;;;;;23.00;9.50;;;;;;;-1.93;67.06;100203.11;106093;1274;97949;-74
2022/01/11 03:18:48;;;;;;;24.60;10.20;;;;;;;-1.97;66.93;100203.48;106076;1274;107726;-74
2022/01/11 03:21:16;;;;;;;24.00;9.90;;;;;;;-1.94;66.99;100207.81;106108;1274;97938;-73
2022/01/11 03:23:44;;;;;;;23.70;9.50;;;;;;;-1.92;67.24;100207.98;106088;1273;97856;-71
2022/01/11 03:26:12;;;;;;;23.40;9.30;;;;;;;-1.94;67.02;100210.25;106145;1274;110197;-72
2022/01/11 03:28:40;;;;;;;23.20;9.30;;;;;;;-1.99;66.90;100217.03;106130;1274;97908;-73
2022/01/11 03:31:08;;;;;;;21.60;8.90;;;;;;;-2.01;66.85;100217.73;106047;1274;135257;-74
2022/01/11 03:33:38;;;;;;;21.40;8.80;;;;;;;-2.02;66.93;100218.61;106158;1274;98090;-73
2022/01/11 03:36:08;;;;;;;21.50;8.70;;;;;;;-2.04;66.97;100220.89;106217;1274;97858;-73
2022/01/11 03:38:36;;;;;;;25.10;8.90;;;;;;;-2.05;66.85;100224.19;106125;1274;111544;-73
2022/01/11 03:41:07;;;;;;;21.40;8.50;;;;;;;-2.09;66.89;100232.89;106116;1274;96976;-74
2022/01/11 03:43:36;;;;;;;21.90;8.50;;;;;;;-2.11;66.81;100235.50;106069;1274;108924;-73
2022/01/11 03:46:06;;;;;;;19.70;8.10;;;;;;;-2.09;66.92;100239.32;106108;1274;95890;-74
2022/01/11 03:48:34;;;;;;;24.20;9.60;;;;;;;-2.10;66.72;100244.54;106135;1274;95253;-74
2022/01/11 03:51:04;;;;;;;22.40;9.70;;;;;;;-2.11;66.94;100243.14;106117;1274;111457;-73
2022/01/11 03:53:43;;;;;;;23.10;9.20;;;;;;;-2.12;67.05;100250.10;106147;1274;98471;-72
2022/01/11 03:56:22;;;;;;;21.30;8.00;;;;;;;-2.12;67.04;100251.84;106121;1274;107862;-73
2022/01/11 03:58:53;;;;;;;23.10;8.40;;;;;;;-2.13;66.96;100255.48;106053;1276;98045;-71
2022/01/11 04:01:23;;;;;;;20.30;8.20;;;;;;;-2.15;66.90;100258.27;106180;1274;97939;-72
2022/01/11 04:03:55;;;;;;;21.10;8.90;;;;;;;-2.16;66.95;100262.96;106130;1274;111312;-73
2022/01/11 04:06:23;;;;;;;22.20;8.80;;;;;;;-2.16;66.94;100266.79;106062;1274;97896;-70
2022/01/11 04:08:53;;;;;;;20.10;7.70;;;;;;;-2.16;67.01;100263.65;106092;1274;107660;-73
2022/01/11 04:11:21;;;;;;;22.30;8.90;;;;;;;-2.15;66.75;100264.87;105981;1277;98650;-72
2022/01/11 04:13:49;;;;;;;23.30;10.00;;;;;;;-2.12;66.95;100263.48;106103;1274;97876;-72
2022/01/11 04:16:17;;;;;;;22.90;9.50;;;;;;;-2.11;66.81;100260.52;106118;1274;111493;-74
2022/01/11 04:18:48;;;;;;;25.20;9.30;;;;;;;-2.11;66.82;100257.92;106110;1274;97972;-75
2022/01/11 04:21:16;;;;;;;22.80;8.10;;;;;;;-2.13;66.98;100258.62;106143;1274;107678;-74
2022/01/11 04:23:43;;;;;;;21.60;8.70;;;;;;;-2.14;66.75;100259.66;106082;1274;97883;-73
2022/01/11 04:26:13;;;;;;;22.10;8.80;;;;;;;-2.15;66.63;100261.05;106098;1274;97907;-72
2022/01/11 04:28:41;;;;;;;23.50;9.50;;;;;;;-2.14;66.97;100264.02;106089;1274;109080;-73
2022/01/11 04:31:09;;;;;;;26.80;10.80;;;;;;;-2.13;66.62;100264.52;106150;1274;97739;-73
2022/01/11 04:33:43;;;;;;;22.30;9.40;;;;;;;-2.12;66.85;100266.61;106106;1273;107726;-73
2022/01/11 04:36:15;;;;;;;25.70;10.20;;;;;;;-2.12;66.66;100270.25;106098;1274;97998;-73
2022/01/11 04:38:43;;;;;;;28.50;12.80;;;;;;;-2.12;66.92;100270.27;106115;1274;97869;-71
2022/01/11 04:41:11;;;;;;;32.50;14.20;;;;;;;-2.11;66.94;100274.09;106125;1274;111073;-72
2022/01/11 04:43:38;;;;;;;27.60;11.80;;;;;;;-2.11;66.77;100275.98;106127;1274;97930;-74
2022/01/11 04:46:07;;;;;;;25.10;10.20;;;;;;;-2.11;66.85;100276.52;106116;1274;107676;-73
2022/01/11 04:48:35;;;;;;;26.10;9.80;;;;;;;-2.10;66.78;100281.91;106061;1274;97888;-73
2022/01/11 04:51:06;;;;;;;24.60;9.80;;;;;;;-2.09;66.95;100286.60;106108;1274;97879;-74
2022/01/11 04:53:34;;;;;;;23.50;8.80;;;;;;;-2.08;66.69;100290.24;106120;1274;111413;-72
2022/01/11 04:56:04;;;;;;;22.70;9.30;;;;;;;-2.07;66.73;100288.68;106137;1274;95950;-73
2022/01/11 04:58:35;;;;;;;24.50;8.80;;;;;;;-2.06;66.90;100291.29;106090;1274;108636;-74
2022/01/11 05:01:02;;;;;;;24.70;10.60;;;;;;;-2.06;66.75;100293.89;106128;1274;98573;-73
2022/01/11 05:03:35;;;;;;;24.80;10.10;;;;;;;-2.05;66.67;100298.59;106160;1274;97908;-73
2022/01/11 05:06:05;;;;;;;27.50;12.10;;;;;;;-2.05;66.51;100299.80;106156;1273;111389;-74
2022/01/11 05:08:35;;;;;;;24.10;11.00;;;;;;;-2.05;66.88;100303.11;106191;1274;97844;-73
2022/01/11 05:11:03;;;;;;;25.70;10.80;;;;;;;-2.05;66.88;100306.75;106069;1274;107590;-75
2022/01/11 05:13:34;;;;;;;22.20;10.30;;;;;;;-2.04;67.03;100307.80;106102;1274;97892;-73
2022/01/11 05:16:06;;;;;;;23.40;9.80;;;;;;;-2.05;66.62;100312.32;106148;1274;98281;-74
2022/01/11 05:18:38;;;;;;;24.60;9.60;;;;;;;-2.06;66.79;100309.18;106118;1273;111921;-75
2022/01/11 05:21:06;;;;;;;21.60;9.00;;;;;;;-2.06;66.52;100307.63;106117;1274;97876;-74
2022/01/11 05:23:34;;;;;;;25.20;10.30;;;;;;;-2.05;66.56;100308.14;106140;1274;107103;-75
2022/01/11 05:26:05;;;;;;;22.60;9.70;;;;;;;-2.05;66.64;100307.80;106145;1274;97968;-75
2022/01/11 05:28:34;;;;;;;23.50;9.30;;;;;;;-2.08;66.52;100309.54;106127;1274;97858;-74
2022/01/11 05:31:05;;;;;;;24.80;10.90;;;;;;;-2.11;66.68;100313.37;106163;1274;111431;-73
2022/01/11 05:33:33;;;;;;;24.50;9.80;;;;;;;-2.13;66.70;100313.36;106168;1274;95275;-73
2022/01/11 05:36:03;;;;;;;24.50;10.10;;;;;;;-2.15;66.60;100319.79;106152;1274;107979;-73
2022/01/11 05:38:31;;;;;;;26.50;10.60;;;;;;;-2.18;66.46;100324.30;106187;1274;97956;-74
2022/01/11 05:40:59;;;;;;;32.80;14.00;;;;;;;-2.20;66.64;100325.88;106176;1274;95283;-77
2022/01/11 05:43:27;;;;;;;41.80;17.00;;;;;;;-2.23;66.80;100327.61;106244;1274;111335;-74
2022/01/11 05:45:55;;;;;;;75.20;28.20;;;;;;;-2.26;66.77;100331.09;106232;1272;97834;-74
2022/01/11 05:48:23;;;;;;;75.90;30.90;;;;;;;-2.29;66.70;100334.57;106192;1274;107779;-74
2022/01/11 05:50:51;;;;;;;80.90;32.50;;;;;;;-2.32;66.59;100339.95;106205;1272;98067;-74
2022/01/11 05:53:19;;;;;;;89.80;35.60;;;;;;;-2.34;66.80;100343.42;106107;1274;97852;-76
2022/01/11 05:55:46;;;;;;;98.40;38.00;;;;;;;-2.38;66.60;100350.89;106143;1274;111288;-73
2022/01/11 05:58:16;;;;;;;132.20;48.00;;;;;;;-2.44;66.40;100357.66;106210;1274;97976;-74
2022/01/11 06:00:44;;;;;;;156.00;57.10;;;;;;;-2.48;66.73;100362.01;106141;1274;107787;-75
2022/01/11 06:03:13;;;;;;;137.60;52.50;;;;;;;-2.54;66.72;100364.08;106158;1274;96349;-74
2022/01/11 06:05:41;;;;;;;125.70;45.60;;;;;;;-2.58;66.74;100364.76;106139;1274;95482;-74
2022/01/11 06:08:16;;;;;;;95.60;38.40;;;;;;;-2.60;66.65;100368.23;106224;1274;109912;-74
2022/01/11 06:10:47;;;;;;;60.50;22.30;;;;;;;-2.63;66.64;100370.48;106142;1274;98054;-74
2022/01/11 06:13:17;;;;;;;49.90;19.80;;;;;;;-2.72;66.50;100371.67;106083;1274;107627;-75
2022/01/11 06:15:44;;;;;;;49.30;19.70;;;;;;;-2.79;66.45;100380.51;106098;1274;98544;-75
2022/01/11 06:18:13;;;;;;;45.20;16.90;;;;;;;-2.82;66.60;100382.75;106087;1274;95236;-75
2022/01/11 06:20:43;;;;;;;47.20;19.20;;;;;;;-2.84;66.56;100384.14;106152;1274;111235;-76
2022/01/11 06:23:11;;;;;;;47.00;20.20;;;;;;;-2.87;66.41;100385.18;106016;1277;98072;-74
2022/01/11 06:25:39;;;;;;;52.40;20.90;;;;;;;-2.88;66.68;100387.27;106109;1274;107766;-77
2022/01/11 06:28:07;;;;;;;56.40;22.90;;;;;;;-2.89;66.37;100395.05;106131;1274;97886;-76
2022/01/11 06:30:35;;;;;;;56.60;21.10;;;;;;;-2.91;66.52;100400.79;106154;1274;95279;-75
2022/01/11 06:33:02;;;;;;;64.20;24.00;;;;;;;-2.93;66.43;100406.15;106036;1276;111019;-75
2022/01/11 06:35:30;;;;;;;53.80;22.60;;;;;;;-2.97;66.40;100407.01;106156;1274;95723;-75
2022/01/11 06:38:00;;;;;;;58.10;23.90;;;;;;;-3.03;66.26;100408.90;106043;1274;107698;-75
2022/01/11 06:40:28;;;;;;;52.70;23.20;;;;;;;-3.06;66.46;100414.95;106138;1274;97899;-74
2022/01/11 06:42:56;;;;;;;53.40;23.30;;;;;;;-3.08;66.37;100415.82;106140;1274;97988;-75
2022/01/11 06:45:25;;;;;;;54.50;25.40;;;;;;;-3.08;66.63;100420.67;106109;1274;111850;-76
2022/01/11 06:47:53;;;;;;;70.10;30.60;;;;;;;-3.09;66.26;100419.98;106152;1274;98017;-75
2022/01/11 06:50:23;;;;;;;72.90;30.60;;;;;;;-3.09;66.72;100420.67;106148;1274;108898;-75
2022/01/11 06:52:50;;;;;;;64.30;26.20;;;;;;;-3.12;66.36;100419.79;106178;1274;97871;-75
2022/01/11 06:55:19;;;;;;;51.10;22.20;;;;;;;-3.15;66.37;100424.10;106120;1274;96982;-74
2022/01/11 06:57:48;;;;;;;46.60;20.40;;;;;;;-3.18;66.30;100426.17;106138;1274;111397;-74
2022/01/11 07:00:20;;;;;;;46.10;20.30;;;;;;;-3.21;66.44;100428.75;106006;1276;95191;-75
2022/01/11 07:02:50;;;;;;;48.60;22.60;;;;;;;-3.21;66.24;100433.27;106169;1274;107659;-75
2022/01/11 07:05:20;;;;;;;52.20;23.80;;;;;;;-3.22;66.41;100432.73;106089;1274;97337;-74
2022/01/11 07:07:50;;;;;;;48.10;22.90;;;;;;;-3.22;66.23;100441.59;106167;1274;97971;-74
2022/01/11 07:10:18;;;;;;;51.10;23.30;;;;;;;-3.25;66.34;100447.64;106138;1274;111373;-75
2022/01/11 07:12:48;;;;;;;46.30;21.70;;;;;;;-3.30;66.21;100451.61;106176;1274;95208;-75
2022/01/11 07:15:16;;;;;;;48.10;22.90;;;;;;;-3.31;66.26;100455.43;106083;1274;107826;-75
2022/01/11 07:17:44;;;;;;;45.10;21.10;;;;;;;-3.34;66.33;100457.83;106051;1274;96958;-74
2022/01/11 07:20:12;;;;;;;53.80;24.70;;;;;;;-3.33;66.33;100463.21;106168;1274;97869;-73
2022/01/11 07:22:41;;;;;;;48.80;26.00;;;;;;;-3.36;66.20;100469.78;106115;1273;111191;-75
2022/01/11 07:25:09;;;;;;;55.20;26.50;;;;;;;-3.42;66.24;100470.25;106088;1274;97901;-73
2022/01/11 07:27:37;;;;;;;56.40;29.30;;;;;;;-3.43;66.11;100478.41;106246;1273;107737;-76
2022/01/11 07:30:08;;;;;;;60.90;28.20;;;;;;;-3.43;66.38;100483.77;106130;1274;97908;-76
2022/01/11 07:32:37;;;;;;;56.40;26.70;;;;;;;-3.42;66.40;100482.91;106106;1272;98377;-75
2022/01/11 07:35:08;;;;;;;55.40;27.40;;;;;;;-3.41;66.58;100487.95;106053;1274;112049;-73
2022/01/11 07:37:47;;;;;;;52.20;25.30;;;;;;;-3.40;66.25;100491.09;106118;1274;97992;-76
2022/01/11 07:40:17;;;;;;;55.40;24.50;;;;;;;-3.37;66.43;100494.94;106105;1274;107624;-75
2022/01/11 07:42:49;;;;;;;60.50;28.60;;;;;;;-3.38;66.30;100498.91;106099;1274;95291;-75
2022/01/11 07:45:19;;;;;;;60.90;27.00;;;;;;;-3.36;66.24;100507.08;106159;1273;96308;-75
2022/01/11 07:47:47;;;;;;;55.80;26.60;;;;;;;-3.37;66.27;100509.32;106206;1274;111343;-75
2022/01/11 07:50:15;;;;;;;55.60;25.70;;;;;;;-3.35;66.24;100507.43;106241;1274;98667;-74
2022/01/11 07:52:43;;;;;;;56.90;27.80;;;;;;;-3.29;66.32;100512.86;106183;1274;107722;-75
2022/01/11 07:55:10;;;;;;;59.30;27.30;;;;;;;-3.23;66.62;100511.34;106109;1274;97959;-75
2022/01/11 07:57:38;;;;;;;64.00;28.10;;;;;;;-3.18;66.62;100512.07;106135;1273;97765;-75
2022/01/11 08:00:08;;;;;;;60.60;26.70;;;;;;;-3.14;66.40;100513.48;106117;1274;112020;-74
2022/01/11 08:02:36;;;;;;;59.30;28.40;;;;;;;-3.08;66.36;100515.77;106119;1274;97882;-74
2022/01/11 08:05:06;;;;;;;58.10;26.10;;;;;;;-3.03;66.57;100519.11;105960;1274;107698;-74
2022/01/11 08:07:34;;;;;;;61.10;28.20;;;;;;;-3.04;66.43;100516.14;106067;1274;97869;-74
2022/01/11 08:10:03;;;;;;;56.50;28.30;;;;;;;-3.03;66.34;100514.24;106010;1274;95990;-73
2022/01/11 08:12:31;;;;;;;56.50;27.40;;;;;;;-3.01;66.48;100513.20;106118;1274;109962;-73
2022/01/11 08:14:58;;;;;;;54.00;26.00;;;;;;;-2.97;66.55;100508.04;106131;1274;97856;-73
2022/01/11 08:17:28;;;;;;;51.20;24.40;;;;;;;-2.92;66.76;100504.77;106200;1273;108304;-74
2022/01/11 08:19:59;;;;;;;56.20;25.30;;;;;;;-2.90;66.51;100504.08;106111;1274;96559;-74
2022/01/11 08:22:27;;;;;;;57.60;26.50;;;;;;;-2.85;66.58;100503.23;106176;1274;98447;-74
2022/01/11 08:24:55;;;;;;;50.40;24.40;;;;;;;-2.82;66.60;100501.69;106175;1274;110138;-74
2022/01/11 08:27:23;;;;;;;51.20;25.00;;;;;;;-2.80;66.56;100498.22;106221;1274;97889;-74
2022/01/11 08:29:51;;;;;;;48.90;23.90;;;;;;;-2.82;66.31;100501.86;106036;1274;107602;-74
2022/01/11 08:32:18;;;;;;;52.10;24.90;;;;;;;-2.78;66.76;100500.49;105990;1274;100305;-74
2022/01/11 08:34:46;;;;;;;51.50;24.30;;;;;;;-2.75;66.71;100506.06;106075;1272;98588;-73
2022/01/11 08:37:15;;;;;;;50.40;26.20;;;;;;;-2.78;66.63;100504.66;106047;1274;111452;-75
2022/01/11 08:39:43;;;;;;;54.40;27.10;;;;;;;-2.78;66.65;100508.30;106166;1274;97889;-75
2022/01/11 08:42:14;;;;;;;53.50;27.00;;;;;;;-2.80;66.41;100506.91;106035;1274;109319;-75
2022/01/11 08:44:46;;;;;;;55.50;27.20;;;;;;;-2.78;66.39;100512.12;106004;1274;97991;-75
2022/01/11 08:47:15;;;;;;;59.00;28.00;;;;;;;-2.74;66.72;100516.15;106006;1274;98008;-74
2022/01/11 08:49:45;;;;;;;54.20;25.50;;;;;;;-2.69;66.93;100515.13;106048;1274;111357;-75
2022/01/11 08:52:15;;;;;;;55.10;27.00;;;;;;;-2.62;67.16;100516.71;106017;1274;97902;-74
2022/01/11 08:54:43;;;;;;;52.40;25.20;;;;;;;-2.57;66.78;100521.25;106167;1273;109369;-74
2022/01/11 08:57:11;;;;;;;52.00;25.40;;;;;;;-2.54;67.10;100520.75;105987;1274;97940;-74
2022/01/11 08:59:39;;;;;;;51.60;25.00;;;;;;;-2.50;66.86;100517.48;105899;1274;96457;-73
2022/01/11 09:02:08;;;;;;;53.80;25.70;;;;;;;-2.44;66.83;100519.40;105985;1273;111154;-75
2022/01/11 09:04:39;;;;;;;53.10;25.90;;;;;;;-2.46;66.94;100520.96;106011;1274;97873;-74
2022/01/11 09:07:09;;;;;;;51.20;24.60;;;;;;;-2.46;66.55;100524.26;105942;1273;105747;-73
2022/01/11 09:09:38;;;;;;;55.30;26.90;;;;;;;-2.44;66.62;100521.83;105983;1274;97886;-74
2022/01/11 09:12:09;;;;;;;51.40;25.20;;;;;;;-2.36;66.79;100521.52;106110;1274;96223;-74
2022/01/11 09:14:38;;;;;;;49.80;23.60;;;;;;;-2.29;66.86;100523.10;107086;1272;111727;-73
2022/01/11 09:17:09;;;;;;;44.70;21.60;;;;;;;-2.21;66.90;100522.61;106249;1273;97865;-73
2022/01/11 09:19:37;;;;;;;44.20;21.10;;;;;;;-2.12;66.92;100521.95;105988;1274;107707;-74
2022/01/11 09:22:06;;;;;;;41.40;20.10;;;;;;;-2.05;66.72;100525.08;105939;1274;97880;-74
2022/01/11 09:24:36;;;;;;;40.40;19.40;;;;;;;-1.96;66.77;100530.31;106491;1272;97028;-73
2022/01/11 09:27:06;;;;;;;43.90;20.80;;;;;;;-1.89;67.08;100527.73;106108;1274;111272;-74
2022/01/11 09:29:37;;;;;;;47.30;23.30;;;;;;;-1.81;67.13;100528.77;106112;1274;97978;-74
2022/01/11 09:32:06;;;;;;;48.90;21.20;;;;;;;-1.77;66.81;100525.31;108018;1273;107831;-74
2022/01/11 09:34:38;;;;;;;50.20;23.50;;;;;;;-1.73;66.87;100528.63;106936;1274;98043;-74
2022/01/11 09:37:07;;;;;;;44.80;22.10;;;;;;;-1.66;67.09;100529.51;105925;1274;95281;-73
2022/01/11 09:39:36;;;;;;;43.80;20.80;;;;;;;-1.60;67.09;100531.42;106020;1273;111471;-72
2022/01/11 09:42:06;;;;;;;39.70;20.20;;;;;;;-1.56;67.14;100531.23;106033;1274;97982;-74
2022/01/11 09:44:38;;;;;;;42.30;20.20;;;;;;;-1.52;66.99;100525.86;105944;1274;107748;-74
2022/01/11 09:47:09;;;;;;;44.70;21.70;;;;;;;-1.49;67.09;100525.50;106091;1276;97759;-73
2022/01/11 09:49:37;;;;;;;45.10;21.30;;;;;;;-1.47;67.24;100525.86;106200;1273;97729;-73
2022/01/11 09:52:07;;;;;;;43.70;21.10;;;;;;;-1.43;67.16;100528.46;106187;1274;111402;-73
2022/01/11 09:54:38;;;;;;;42.00;20.00;;;;;;;-1.39;67.01;100530.37;106134;1274;95299;-73
2022/01/11 09:57:09;;;;;;;43.50;19.30;;;;;;;-1.35;67.14;100532.30;106131;1274;107711;-72
2022/01/11 09:59:38;;;;;;;42.20;22.10;;;;;;;-1.34;67.33;100529.50;106132;1274;98991;-74
2022/01/11 10:02:06;;;;;;;43.80;21.40;;;;;;;-1.29;67.52;100529.67;106175;1274;97957;-74
2022/01/11 10:04:36;;;;;;;43.80;20.90;;;;;;;-1.25;67.05;100535.59;106125;1273;111389;-74
2022/01/11 10:07:08;;;;;;;42.80;21.50;;;;;;;-1.22;67.24;100537.85;106224;1274;97845;-73
2022/01/11 10:09:50;;;;;;;38.90;19.90;;;;;;;-1.18;67.11;100534.89;106132;1274;108004;-74
2022/01/11 10:12:19;;;;;;;40.50;20.10;;;;;;;-1.17;67.08;100537.15;106139;1273;97820;-75
2022/01/11 10:14:50;;;;;;;41.90;21.70;;;;;;;-1.16;67.26;100538.02;106217;1274;98588;-74
2022/01/11 10:17:23;;;;;;;46.60;21.30;;;;;;;-1.14;67.46;100536.80;106138;1274;111102;-75
2022/01/11 10:19:59;;;;;;;42.20;21.00;;;;;;;-1.13;67.27;100536.09;106216;1274;95200;-77
2022/01/11 10:22:30;;;;;;;46.20;22.30;;;;;;;-1.12;67.20;100537.33;106237;1274;106278;-75
2022/01/11 10:25:00;;;;;;;49.20;24.10;;;;;;;-1.11;67.02;100535.59;106185;1274;97762;-76
2022/01/11 10:27:31;;;;;;;43.70;21.10;;;;;;;-1.16;67.03;100538.19;106182;1274;97878;-74
2022/01/11 10:30:26;;;;;;;48.20;23.70;;;;;;;-1.17;67.08;100535.94;106165;1274;111787;-73
2022/01/11 10:32:58;;;;;;;43.70;21.80;;;;;;;-1.15;67.35;100534.19;106167;1273;99607;-76
2022/01/11 10:35:38;;;;;;;47.00;22.70;;;;;;;-1.12;67.34;100536.81;106118;1274;107781;-75
2022/01/11 10:38:27;;;;;;;45.90;21.60;;;;;;;-1.11;67.09;100534.20;106114;1274;97944;-74
2022/01/11 10:40:55;;;;;;;47.10;23.50;;;;;;;-1.11;67.22;100532.98;106033;1274;97830;-76
2022/01/11 10:43:23;;;;;;;43.00;21.40;;;;;;;-1.15;66.93;100526.54;106109;1274;111498;-76
2022/01/11 10:45:55;;;;;;;47.50;23.50;;;;;;;-1.15;67.15;100528.97;106112;1274;98043;-74
2022/01/11 10:48:28;;;;;;;48.60;22.50;;;;;;;-1.14;67.17;100531.23;106090;1274;107781;-74
2022/01/11 10:51:01;;;;;;;43.00;20.10;;;;;;;-1.15;67.08;100528.27;106133;1274;97882;-75
2022/01/11 10:53:39;;;;;;;44.70;21.10;;;;;;;-1.19;67.12;100530.02;106151;1274;97841;-74
2022/01/11 10:56:08;;;;;;;44.70;21.50;;;;;;;-1.24;67.21;100526.73;106098;1274;111319;-75
2022/01/11 10:59:10;;;;;;;47.10;21.40;;;;;;;-1.24;67.28;100527.77;106117;1272;95249;-75
2022/01/11 11:01:42;;;;;;;54.20;23.80;;;;;;;-1.22;67.25;100526.88;106115;1274;107903;-74
2022/01/11 11:04:33;;;;;;;55.70;26.90;;;;;;;-1.22;67.20;100526.19;106125;1274;97850;-75
2022/01/11 11:07:15;;;;;;;58.10;24.50;;;;;;;-1.22;67.03;100520.09;106121;1274;96582;-74
2022/01/11 11:09:47;;;;;;;45.90;22.20;;;;;;;-1.21;67.07;100524.96;106045;1274;111277;-73
2022/01/11 11:12:18;;;;;;;47.00;21.80;;;;;;;-1.20;67.09;100524.79;106107;1274;95203;-74
2022/01/11 11:14:50;;;;;;;53.40;26.80;;;;;;;-1.18;67.10;100523.05;106101;1274;107993;-74
2022/01/11 11:17:36;;;;;;;47.70;24.40;;;;;;;-1.20;67.23;100523.92;106185;1272;97836;-76